Time;durP1;ratioP1;P1;durP2;ratioP2;P2;SDS_P1;SDS_P2;PMS_P1;PMS_P2;Temp;Humidity;BMP_temperature;BMP_pressure;BME280_temperature;BME280_humidity;BME280_pressure;Samples;Min_cycle;Max_cycle;Signal;HPM_P1;HPM_P2
2021/12/31 00:01:56;;;;;;;3.13;2.00;;;12.20;99.90;;;;;;5091738;28;20184;-66
2021/12/31 00:04:22;;;;;;;4.68;2.08;;;12.20;99.90;;;;;;5090541;28;20212;-66
2021/12/31 00:06:48;;;;;;;6.35;2.30;;;12.30;99.90;;;;;;5091698;28;20179;-67
2021/12/31 00:09:13;;;;;;;3.70;2.10;;;12.20;99.90;;;;;;5091902;28;20599;-66
2021/12/31 00:11:39;;;;;;;5.13;2.15;;;12.20;99.90;;;;;;5091376;28;20176;-66
2021/12/31 00:14:04;;;;;;;3.63;2.17;;;12.20;99.90;;;;;;5091997;28;20550;-66
2021/12/31 00:16:30;;;;;;;3.05;2.20;;;12.20;99.90;;;;;;5091859;28;20173;-66
2021/12/31 00:18:56;;;;;;;3.20;2.33;;;12.20;99.90;;;;;;5091819;28;20179;-66
2021/12/31 00:21:21;;;;;;;4.18;2.20;;;12.20;99.90;;;;;;5091591;28;20180;-66
2021/12/31 00:23:47;;;;;;;3.17;2.15;;;12.20;99.90;;;;;;5090620;28;20256;-66
2021/12/31 00:26:12;;;;;;;4.80;2.35;;;12.10;99.90;;;;;;5091279;28;20319;-66
2021/12/31 00:28:38;;;;;;;4.63;2.30;;;12.10;99.90;;;;;;5092296;28;20206;-66
2021/12/31 00:31:04;;;;;;;3.53;2.17;;;12.10;99.90;;;;;;5091409;28;20647;-66
2021/12/31 00:33:29;;;;;;;2.65;2.10;;;12.10;99.90;;;;;;5091869;28;20242;-66
2021/12/31 00:35:55;;;;;;;2.50;2.13;;;12.10;99.90;;;;;;5093666;28;20180;-65
2021/12/31 00:38:20;;;;;;;4.03;2.17;;;12.10;99.90;;;;;;5095961;28;20233;-65
2021/12/31 00:40:46;;;;;;;3.08;2.17;;;12.10;99.90;;;;;;5095396;28;20172;-66
2021/12/31 00:43:12;;;;;;;4.82;2.17;;;12.10;99.90;;;;;;5095867;28;20179;-65
2021/12/31 00:45:40;;;;;;;3.28;2.03;;;12.10;99.90;;;;;;5095672;28;20214;-65
2021/12/31 00:48:08;;;;;;;4.25;2.33;;;12.10;99.90;;;;;;5095883;28;20551;-65
2021/12/31 00:50:34;;;;;;;3.97;2.20;;;12.10;99.90;;;;;;5095395;28;20657;-66
2021/12/31 00:53:00;;;;;;;2.75;2.25;;;12.10;99.90;;;;;;5094584;28;20171;-65
2021/12/31 00:55:25;;;;;;;2.92;2.30;;;12.10;99.90;;;;;;5095111;28;20237;-66
2021/12/31 00:57:51;;;;;;;4.95;2.10;;;12.10;99.90;;;;;;5095461;28;20220;-65
2021/12/31 01:00:17;;;;;;;4.47;2.15;;;12.10;99.90;;;;;;5095247;28;20179;-65
2021/12/31 01:02:45;;;;;;;5.07;2.15;;;12.10;99.90;;;;;;5094301;28;20199;-66
2021/12/31 01:05:12;;;;;;;2.20;2.00;;;12.10;99.90;;;;;;5095356;28;20258;-65
2021/12/31 01:07:38;;;;;;;4.55;2.28;;;12.10;99.90;;;;;;5095289;28;20212;-65
2021/12/31 01:10:04;;;;;;;2.40;1.85;;;12.10;99.90;;;;;;5095242;28;20211;-65
2021/12/31 01:12:30;;;;;;;3.78;1.90;;;12.10;99.90;;;;;;5095190;28;20184;-65
2021/12/31 01:20:14;;;;;;;2.67;2.20;;;12.10;99.90;;;;;;5084816;28;20658;-65
2021/12/31 01:22:39;;;;;;;2.90;2.30;;;12.10;99.90;;;;;;5095231;28;20211;-65
2021/12/31 01:25:06;;;;;;;3.75;2.70;;;12.10;99.90;;;;;;5094744;28;20558;-66
2021/12/31 01:27:35;;;;;;;3.75;2.28;;;12.10;99.90;;;;;;5094585;28;20242;-65
2021/12/31 01:30:01;;;;;;;3.47;2.50;;;12.20;99.90;;;;;;5095049;28;20249;-65
2021/12/31 01:32:27;;;;;;;2.55;1.90;;;12.20;99.90;;;;;;5094947;28;20176;-65
2021/12/31 01:34:52;;;;;;;2.58;2.13;;;12.10;99.90;;;;;;5095033;28;20225;-66
2021/12/31 01:37:18;;;;;;;2.78;1.80;;;12.10;99.90;;;;;;5078725;28;20236;-65
2021/12/31 01:39:43;;;;;;;4.07;2.08;;;12.10;99.90;;;;;;5094037;28;20183;-66
2021/12/31 01:42:13;;;;;;;2.58;1.92;;;12.10;99.90;;;;;;5094104;28;20244;-65
2021/12/31 01:44:44;;;;;;;4.05;1.92;;;12.00;99.90;;;;;;5094562;28;20219;-65
2021/12/31 01:47:13;;;;;;;1.70;1.60;;;12.00;99.90;;;;;;5092743;28;20187;-65
2021/12/31 01:49:43;;;;;;;2.13;1.90;;;12.00;99.90;;;;;;5094357;28;20655;-65
2021/12/31 01:52:10;;;;;;;4.75;2.05;;;12.00;99.90;;;;;;5093326;28;20177;-65
2021/12/31 01:54:37;;;;;;;3.20;1.90;;;12.00;99.90;;;;;;5094428;28;20279;-65
2021/12/31 01:57:05;;;;;;;4.55;2.00;;;12.00;99.90;;;;;;5080499;28;20258;-65
2021/12/31 01:59:32;;;;;;;6.30;2.20;;;12.00;99.90;;;;;;5079839;28;20187;-66
2021/12/31 02:01:59;;;;;;;2.33;1.90;;;12.00;99.90;;;;;;5086640;28;20223;-66
2021/12/31 02:04:26;;;;;;;4.78;2.15;;;12.00;99.90;;;;;;5086864;28;20216;-65
2021/12/31 02:06:51;;;;;;;2.95;1.90;;;12.00;99.90;;;;;;5076557;28;20180;-65
2021/12/31 02:09:17;;;;;;;4.20;1.88;;;12.00;99.90;;;;;;5074177;28;20191;-66
2021/12/31 02:11:42;;;;;;;6.22;1.95;;;11.90;99.90;;;;;;5075170;28;20666;-65
2021/12/31 02:14:08;;;;;;;5.10;1.90;;;11.90;99.90;;;;;;5092662;28;20172;-65
2021/12/31 02:16:34;;;;;;;4.95;1.98;;;11.80;99.90;;;;;;5093922;28;20184;-65
2021/12/31 02:19:10;;;;;;;3.78;2.08;;;11.80;99.90;;;;;;5094103;28;20187;-65
2021/12/31 02:21:36;;;;;;;1.75;1.65;;;11.70;99.90;;;;;;5093799;28;20530;-65
2021/12/31 02:24:06;;;;;;;2.40;2.00;;;11.60;99.90;;;;;;5093960;28;20172;-65
2021/12/31 02:26:31;;;;;;;2.50;1.80;;;11.40;99.90;;;;;;5093871;28;20180;-65
2021/12/31 02:28:57;;;;;;;3.17;1.92;;;11.30;99.90;;;;;;5092671;28;20515;-65
2021/12/31 02:31:22;;;;;;;4.63;2.10;;;11.20;99.90;;;;;;5093358;28;20191;-65
2021/12/31 02:33:49;;;;;;;2.10;1.80;;;11.10;99.90;;;;;;5093725;28;20207;-66
2021/12/31 02:36:15;;;;;;;2.85;1.90;;;11.00;99.90;;;;;;5092208;28;20541;-65
2021/12/31 02:38:41;;;;;;;2.85;1.75;;;11.00;99.90;;;;;;5093408;28;20190;-65
2021/12/31 02:41:06;;;;;;;2.28;1.95;;;10.90;99.90;;;;;;5092818;28;20184;-65
2021/12/31 02:43:32;;;;;;;3.80;2.42;;;10.90;99.90;;;;;;5092987;28;20233;-65
2021/12/31 02:45:58;;;;;;;6.07;2.30;;;10.90;99.90;;;;;;5093288;28;20208;-65
2021/12/31 02:48:25;;;;;;;3.40;2.38;;;10.90;99.90;;;;;;5092631;28;20267;-66
2021/12/31 02:50:53;;;;;;;5.05;2.40;;;10.80;99.90;;;;;;5093224;28;20188;-65
2021/12/31 02:53:25;;;;;;;3.97;2.28;;;10.80;99.90;;;;;;5091642;28;20176;-65
2021/12/31 02:55:59;;;;;;;5.55;2.20;;;10.80;99.90;;;;;;5093541;28;20421;-65
2021/12/31 02:58:25;;;;;;;5.63;2.85;;;10.80;99.90;;;;;;5092628;28;20229;-65
2021/12/31 03:00:50;;;;;;;6.50;3.60;;;10.80;99.90;;;;;;5093122;28;20605;-66
2021/12/31 03:03:17;;;;;;;6.57;3.58;;;10.80;99.90;;;;;;5093469;28;20176;-66
2021/12/31 03:05:44;;;;;;;5.78;3.90;;;10.80;99.90;;;;;;5093020;28;20224;-66
2021/12/31 03:08:11;;;;;;;6.38;3.70;;;10.80;99.90;;;;;;5092737;28;20226;-66
2021/12/31 03:10:39;;;;;;;6.78;4.10;;;10.70;99.90;;;;;;5092749;28;20258;-66
2021/12/31 03:13:06;;;;;;;8.82;4.90;;;10.70;99.90;;;;;;5092786;28;20176;-66
2021/12/31 03:15:32;;;;;;;11.13;5.75;;;10.70;99.90;;;;;;5092658;28;20188;-64
2021/12/31 03:18:02;;;;;;;9.93;5.30;;;10.60;99.90;;;;;;5091287;28;20328;-64
2021/12/31 03:20:36;;;;;;;7.07;4.40;;;10.60;99.90;;;;;;5092797;28;20410;-66
2021/12/31 03:23:03;;;;;;;7.22;4.45;;;10.50;99.90;;;;;;5082296;28;20176;-64
2021/12/31 03:25:29;;;;;;;10.57;4.95;;;10.50;99.90;;;;;;5092754;28;20219;-63
2021/12/31 03:27:55;;;;;;;7.80;4.63;;;10.50;99.90;;;;;;5092582;28;20333;-64
2021/12/31 03:30:20;;;;;;;9.93;4.70;;;10.40;99.90;;;;;;5090898;28;20699;-64
2021/12/31 03:32:46;;;;;;;6.28;3.67;;;10.40;99.90;;;;;;5092850;28;20180;-64
2021/12/31 03:35:11;;;;;;;5.50;3.55;;;10.30;99.90;;;;;;5092084;28;20173;-66
2021/12/31 03:37:37;;;;;;;5.00;3.42;;;10.30;99.90;;;;;;5092447;28;20289;-66
2021/12/31 03:40:04;;;;;;;6.28;3.30;;;10.30;99.90;;;;;;5091069;28;20211;-66
2021/12/31 03:42:31;;;;;;;4.00;3.00;;;10.20;99.90;;;;;;5092062;28;20183;-66
2021/12/31 03:44:56;;;;;;;5.13;2.97;;;10.10;99.90;;;;;;5092218;28;20212;-66
2021/12/31 03:47:22;;;;;;;3.17;2.53;;;10.10;99.90;;;;;;5092200;28;20727;-66
2021/12/31 03:49:47;;;;;;;3.17;2.50;;;10.00;99.90;;;;;;5091035;28;20180;-66
2021/12/31 03:52:13;;;;;;;2.22;2.03;;;10.00;99.90;;;;;;5091757;28;20241;-66
2021/12/31 03:54:39;;;;;;;3.90;2.50;;;9.90;99.90;;;;;;5090708;28;20635;-66
2021/12/31 03:57:04;;;;;;;3.55;2.60;;;9.90;99.90;;;;;;5090390;28;20675;-65
2021/12/31 03:59:30;;;;;;;4.45;2.67;;;9.90;99.90;;;;;;5092240;28;20510;-65
2021/12/31 04:01:56;;;;;;;4.65;2.10;;;9.90;99.90;;;;;;5090795;28;20191;-66
2021/12/31 04:04:21;;;;;;;3.05;2.08;;;9.80;99.90;;;;;;5091246;28;20188;-66
2021/12/31 04:06:47;;;;;;;4.63;2.25;;;9.80;99.90;;;;;;5091636;28;20191;-66
2021/12/31 04:09:12;;;;;;;2.30;2.10;;;9.70;99.90;;;;;;5091151;28;20232;-66
2021/12/31 04:11:38;;;;;;;2.85;1.70;;;9.70;99.90;;;;;;5090964;28;20549;-66
2021/12/31 04:14:04;;;;;;;4.00;1.90;;;9.70;99.90;;;;;;5091367;28;20168;-66
2021/12/31 04:16:30;;;;;;;1.90;1.60;;;9.70;99.90;;;;;;5091979;28;20183;-66
2021/12/31 04:18:56;;;;;;;2.33;1.70;;;9.60;99.90;;;;;;5091830;28;20672;-66
2021/12/31 04:21:23;;;;;;;2.15;1.63;;;9.70;99.90;;;;;;5091537;28;20627;-66
2021/12/31 04:24:04;;;;;;;2.53;1.83;;;9.60;99.90;;;;;;5092131;28;20220;-66
2021/12/31 04:26:30;;;;;;;2.97;1.90;;;9.60;99.90;;;;;;5091719;28;20243;-66
2021/12/31 04:28:55;;;;;;;2.08;1.52;;;9.60;99.90;;;;;;5092288;28;20654;-66
2021/12/31 04:31:21;;;;;;;5.13;3.22;;;9.60;99.90;;;;;;5091041;28;20538;-66
2021/12/31 04:33:47;;;;;;;8.82;3.70;;;9.50;99.90;;;;;;5091878;28;20183;-66
2021/12/31 04:36:12;;;;;;;5.38;3.38;;;9.50;99.90;;;;;;5091040;28;20541;-66
2021/12/31 04:38:38;;;;;;;5.82;3.10;;;9.50;99.90;;;;;;5091712;28;20184;-66
2021/12/31 04:41:03;;;;;;;4.90;3.20;;;9.50;99.90;;;;;;5089938;28;20230;-66
2021/12/31 04:43:29;;;;;;;5.43;2.58;;;9.50;99.90;;;;;;5091098;28;20180;-65
2021/12/31 04:45:55;;;;;;;4.18;2.40;;;9.40;99.90;;;;;;5091707;28;20223;-66
2021/12/31 04:48:20;;;;;;;4.38;2.67;;;9.40;99.90;;;;;;5091251;28;20168;-66
2021/12/31 04:50:46;;;;;;;2.60;1.92;;;9.30;99.90;;;;;;5091423;28;20188;-66
2021/12/31 04:53:11;;;;;;;3.33;2.45;;;9.30;99.90;;;;;;5090349;28;20183;-66
2021/12/31 04:55:37;;;;;;;5.13;2.30;;;9.30;99.90;;;;;;5091399;28;20177;-65
2021/12/31 04:58:02;;;;;;;2.55;2.00;;;9.30;99.90;;;;;;5089698;28;20310;-66
2021/12/31 05:00:28;;;;;;;2.42;1.67;;;9.20;99.90;;;;;;5091205;28;20225;-65
2021/12/31 05:02:54;;;;;;;2.88;1.88;;;9.20;99.90;;;;;;5091075;28;20187;-65
2021/12/31 05:05:19;;;;;;;4.03;1.80;;;9.20;99.90;;;;;;5090264;28;20290;-65
2021/12/31 05:07:45;;;;;;;1.95;1.60;;;9.10;99.90;;;;;;5091517;28;20168;-65
2021/12/31 05:10:10;;;;;;;3.75;1.80;;;9.10;99.90;;;;;;5091296;28;20683;-65
2021/12/31 05:12:38;;;;;;;2.40;1.85;;;9.10;99.90;;;;;;5091322;28;20168;-65
2021/12/31 05:15:07;;;;;;;3.58;1.88;;;9.00;99.90;;;;;;5089781;28;20506;-65
2021/12/31 05:17:33;;;;;;;3.13;1.80;;;9.00;99.90;;;;;;5091155;28;20176;-65
2021/12/31 05:20:00;;;;;;;2.78;1.70;;;9.00;99.90;;;;;;5090629;28;20249;-65
2021/12/31 05:22:25;;;;;;;2.10;1.58;;;8.90;99.90;;;;;;5095063;28;20183;-65
2021/12/31 05:24:51;;;;;;;3.58;1.65;;;8.90;99.90;;;;;;5095289;28;20208;-65
2021/12/31 05:27:16;;;;;;;3.60;2.13;;;8.80;99.90;;;;;;5094347;28;20546;-65
2021/12/31 05:29:42;;;;;;;2.90;2.17;;;8.80;99.90;;;;;;5094934;28;20168;-65
2021/12/31 05:32:08;;;;;;;7.22;2.30;;;8.70;99.90;;;;;;5095135;28;20195;-66
2021/12/31 05:34:33;;;;;;;3.30;2.22;;;8.70;99.90;;;;;;5094647;28;20180;-65
2021/12/31 05:36:59;;;;;;;3.22;1.90;;;8.60;99.90;;;;;;5094646;28;21396;-65
2021/12/31 05:39:25;;;;;;;2.45;2.20;;;8.60;99.90;;;;;;5094385;28;20191;-65
2021/12/31 05:41:51;;;;;;;3.83;2.00;;;8.50;99.90;;;;;;5094486;28;20603;-66
2021/12/31 05:44:17;;;;;;;2.53;1.80;;;8.50;99.90;;;;;;5094748;28;20176;-66
2021/12/31 05:46:47;;;;;;;2.10;1.90;;;8.50;99.90;;;;;;5094378;28;20320;-66
2021/12/31 05:49:13;;;;;;;2.05;1.85;;;8.40;99.90;;;;;;5094518;28;20229;-66
2021/12/31 05:51:38;;;;;;;2.75;2.05;;;8.40;99.90;;;;;;5093247;28;20654;-65
2021/12/31 05:54:04;;;;;;;2.15;1.95;;;8.40;99.90;;;;;;5094425;28;20172;-66
2021/12/31 05:56:29;;;;;;;2.60;1.95;;;8.30;99.90;;;;;;5094540;28;20280;-65
2021/12/31 05:58:55;;;;;;;4.78;2.20;;;8.30;99.90;;;;;;5094239;28;20284;-66
2021/12/31 06:01:20;;;;;;;2.50;2.25;;;8.30;99.90;;;;;;5093809;28;20294;-65
2021/12/31 06:03:46;;;;;;;13.55;7.20;;;8.20;99.90;;;;;;5093813;28;20654;-66
2021/12/31 06:06:11;;;;;;;10.98;6.10;;;8.20;99.90;;;;;;5094159;28;20247;-66
2021/12/31 06:08:37;;;;;;;8.80;5.28;;;8.20;99.90;;;;;;5093979;28;20188;-66
2021/12/31 06:11:03;;;;;;;6.97;4.50;;;8.10;99.90;;;;;;5092651;28;20190;-66
2021/12/31 06:13:29;;;;;;;7.78;3.65;;;8.10;99.90;;;;;;5093229;28;20180;-66
2021/12/31 06:15:57;;;;;;;6.63;2.92;;;8.10;99.90;;;;;;5094184;28;20173;-67
2021/12/31 06:18:27;;;;;;;2.17;1.95;;;8.00;99.90;;;;;;5093431;28;20274;-65
2021/12/31 06:20:53;;;;;;;2.22;1.92;;;8.00;99.90;;;;;;5093246;28;20180;-66
2021/12/31 06:23:19;;;;;;;3.83;2.05;;;8.00;99.90;;;;;;5093699;28;20572;-65
2021/12/31 06:25:44;;;;;;;3.67;1.70;;;7.90;99.90;;;;;;5093450;28;20671;-65
2021/12/31 06:28:10;;;;;;;3.13;1.83;;;7.90;99.90;;;;;;5093838;28;20187;-65
2021/12/31 06:30:35;;;;;;;2.75;1.90;;;7.80;99.90;;;;;;5093765;28;20184;-65
2021/12/31 06:33:01;;;;;;;2.15;1.65;;;7.80;99.90;;;;;;5091006;28;20558;-64
2021/12/31 06:35:27;;;;;;;3.15;2.03;;;7.80;99.90;;;;;;5093791;28;20201;-62
2021/12/31 06:37:54;;;;;;;3.08;2.30;;;7.70;99.90;;;;;;5093412;28;20566;-69
2021/12/31 06:40:20;;;;;;;4.47;2.20;;;7.70;99.90;;;;;;5093899;28;20226;-66
2021/12/31 06:42:45;;;;;;;3.20;2.30;;;7.70;99.90;;;;;;5093455;28;20271;-65
2021/12/31 06:45:11;;;;;;;3.30;1.95;;;7.60;99.90;;;;;;5092970;28;20294;-64
2021/12/31 06:47:36;;;;;;;3.63;3.00;;;7.60;99.90;;;;;;5093971;28;20172;-65
2021/12/31 06:50:03;;;;;;;5.72;3.17;;;7.60;99.90;;;;;;5093743;28;20274;-62
2021/12/31 06:52:29;;;;;;;4.57;3.22;;;7.60;99.90;;;;;;5093468;28;20245;-62
2021/12/31 06:54:54;;;;;;;5.90;3.50;;;7.60;99.90;;;;;;5092987;28;20188;-63
2021/12/31 06:57:20;;;;;;;5.72;3.85;;;7.50;99.90;;;;;;5099932;28;20215;-65
2021/12/31 06:59:45;;;;;;;4.65;2.90;;;7.50;99.90;;;;;;5082235;28;20187;-64
2021/12/31 07:02:11;;;;;;;2.85;2.42;;;7.50;99.90;;;;;;5093587;28;20172;-64
2021/12/31 07:04:37;;;;;;;2.88;2.22;;;7.40;99.90;;;;;;5093358;28;20736;-64
2021/12/31 07:07:02;;;;;;;2.78;1.90;;;7.40;99.90;;;;;;5093281;28;20188;-65
2021/12/31 07:09:28;;;;;;;2.53;2.08;;;7.40;99.90;;;;;;5093455;28;20168;-65
2021/12/31 07:11:53;;;;;;;5.20;2.20;;;7.30;99.90;;;;;;5092889;28;20263;-64
2021/12/31 07:14:19;;;;;;;2.95;2.22;;;7.30;99.90;;;;;;5093002;28;20184;-65
2021/12/31 07:16:45;;;;;;;5.53;2.10;;;7.30;99.90;;;;;;5093318;28;20168;-64
2021/12/31 07:19:10;;;;;;;4.50;2.38;;;7.30;99.90;;;;;;5092750;28;20229;-64
2021/12/31 07:21:36;;;;;;;3.53;2.38;;;7.30;99.90;;;;;;5092776;28;20631;-64
2021/12/31 07:24:01;;;;;;;2.85;2.13;;;7.20;99.90;;;;;;5092529;28;21017;-64
2021/12/31 07:26:27;;;;;;;4.07;2.47;;;7.20;99.90;;;;;;5092549;28;20223;-65
2021/12/31 07:28:52;;;;;;;3.35;2.58;;;7.20;99.90;;;;;;5092491;28;20211;-65
2021/12/31 07:31:18;;;;;;;3.45;2.15;;;7.20;99.90;;;;;;5092638;28;20187;-65
2021/12/31 07:33:43;;;;;;;2.45;2.25;;;7.20;99.90;;;;;;5092888;28;20172;-64
2021/12/31 07:36:09;;;;;;;3.05;2.55;;;7.20;99.90;;;;;;5092671;28;20221;-65
2021/12/31 07:38:38;;;;;;;3.15;2.60;;;7.20;99.90;;;;;;5092270;28;20203;-65
2021/12/31 07:41:04;;;;;;;2.90;2.60;;;7.20;99.90;;;;;;5092599;28;20262;-65
2021/12/31 07:43:30;;;;;;;6.10;2.80;;;7.20;99.90;;;;;;5092338;28;20326;-63
2021/12/31 07:45:56;;;;;;;3.65;2.47;;;7.10;99.90;;;;;;5092337;28;20372;-63
2021/12/31 07:48:22;;;;;;;4.57;2.70;;;7.20;99.90;;;;;;5092556;28;20179;-63
2021/12/31 07:50:48;;;;;;;5.25;3.90;;;7.10;99.90;;;;;;5092217;28;20188;-63
2021/12/31 07:53:14;;;;;;;4.43;3.60;;;7.20;99.90;;;;;;5091818;28;20190;-63
2021/12/31 07:55:41;;;;;;;5.50;3.17;;;7.20;99.90;;;;;;5092436;28;20647;-63
2021/12/31 07:58:06;;;;;;;4.85;3.10;;;7.20;99.90;;;;;;5091900;28;20216;-63
2021/12/31 08:00:32;;;;;;;9.35;3.78;;;7.10;99.90;;;;;;5092112;28;20279;-63
2021/12/31 08:02:58;;;;;;;14.93;7.40;;;7.10;99.90;;;;;;5092330;28;20241;-63
2021/12/31 08:05:26;;;;;;;14.30;8.27;;;7.20;99.90;;;;;;5091377;28;20206;-62
2021/12/31 08:07:52;;;;;;;11.82;6.50;;;7.20;99.90;;;;;;5091663;28;20184;-62
2021/12/31 08:10:19;;;;;;;10.27;6.60;;;7.20;99.90;;;;;;5091697;28;20173;-62
2021/12/31 08:12:45;;;;;;;7.57;5.20;;;7.30;99.90;;;;;;5091529;28;20218;-63
2021/12/31 08:15:11;;;;;;;10.63;6.25;;;7.30;99.90;;;;;;5091947;28;20203;-62
2021/12/31 08:17:37;;;;;;;10.35;4.43;;;7.40;99.90;;;;;;5091838;28;20180;-62
2021/12/31 08:20:03;;;;;;;5.75;3.58;;;7.50;99.90;;;;;;5090506;28;20543;-62
2021/12/31 08:22:29;;;;;;;4.97;3.60;;;7.50;99.90;;;;;;5091828;28;20267;-64
2021/12/31 08:24:54;;;;;;;6.18;3.63;;;7.50;99.90;;;;;;5091430;28;20314;-63
2021/12/31 08:27:20;;;;;;;8.20;3.13;;;7.60;99.90;;;;;;5091588;28;20199;-63
2021/12/31 08:29:45;;;;;;;6.88;2.97;;;7.60;99.90;;;;;;5101002;28;20186;-63
2021/12/31 08:32:14;;;;;;;10.40;4.55;;;7.70;99.90;;;;;;5090703;28;20172;-64
2021/12/31 08:34:40;;;;;;;9.18;4.93;;;7.70;99.90;;;;;;5091754;28;20255;-64
2021/12/31 08:37:06;;;;;;;5.63;3.53;;;7.80;99.90;;;;;;5091408;28;20305;-64
2021/12/31 08:39:31;;;;;;;6.80;3.40;;;7.80;99.90;;;;;;5090067;28;20203;-63
2021/12/31 08:41:59;;;;;;;3.50;2.10;;;7.90;99.90;;;;;;5091540;28;20658;-63
2021/12/31 08:44:25;;;;;;;4.50;2.13;;;8.00;99.90;;;;;;5092026;28;20172;-64
2021/12/31 08:46:51;;;;;;;4.10;2.38;;;8.10;99.90;;;;;;5090400;28;20191;-64
2021/12/31 08:49:17;;;;;;;8.20;3.33;;;8.20;99.90;;;;;;5090127;28;20172;-63
2021/12/31 08:51:43;;;;;;;5.68;3.88;;;8.30;99.90;;;;;;5091921;28;20172;-63
2021/12/31 08:54:08;;;;;;;5.50;3.47;;;8.40;99.90;;;;;;5091271;28;20249;-63
2021/12/31 08:56:34;;;;;;;37.35;17.90;;;8.40;99.90;;;;;;5093745;28;20633;-60
2021/12/31 08:59:00;;;;;;;67.10;29.92;;;8.80;99.90;;;;;;5095322;28;20234;-62
2021/12/31 09:01:25;;;;;;;30.75;14.98;;;9.50;99.90;;;;;;5094915;28;20275;-60
2021/12/31 09:03:51;;;;;;;25.58;12.68;;;10.20;99.90;;;;;;5095164;28;20176;-61
2021/12/31 09:06:18;;;;;;;7.05;4.13;;;10.90;99.90;;;;;;5095439;28;20207;-61
2021/12/31 09:08:44;;;;;;;6.18;4.50;;;11.20;99.90;;;;;;5095553;28;20187;-61
2021/12/31 09:11:10;;;;;;;5.90;4.10;;;11.20;99.90;;;;;;5094958;28;20329;-62
2021/12/31 09:13:36;;;;;;;6.13;3.55;;;11.10;99.90;;;;;;5094359;28;20647;-62
2021/12/31 09:16:02;;;;;;;4.55;4.00;;;10.90;99.90;;;;;;5094905;28;20274;-61
2021/12/31 09:18:27;;;;;;;4.50;3.53;;;10.80;99.90;;;;;;5095209;28;20180;-61
2021/12/31 09:20:53;;;;;;;5.68;4.07;;;10.60;99.90;;;;;;5094934;28;20192;-61
2021/12/31 09:23:19;;;;;;;5.55;4.00;;;10.60;99.90;;;;;;5095047;28;20237;-61
2021/12/31 09:25:44;;;;;;;6.88;4.18;;;10.60;99.90;;;;;;5094523;28;20634;-61
2021/12/31 09:28:10;;;;;;;6.55;4.32;;;10.60;99.90;;;;;;5094409;28;20184;-61
2021/12/31 09:30:36;;;;;;;6.95;4.28;;;10.60;99.90;;;;;;5095055;28;20263;-61
2021/12/31 09:33:02;;;;;;;7.60;5.60;;;10.60;99.90;;;;;;5093639;28;20195;-64
2021/12/31 09:35:27;;;;;;;7.75;5.63;;;10.70;99.90;;;;;;5094810;28;20191;-62
2021/12/31 09:37:53;;;;;;;11.30;6.32;;;10.80;99.90;;;;;;5094514;28;20177;-62
2021/12/31 09:40:20;;;;;;;34.88;18.10;;;10.90;99.90;;;;;;5094976;28;20192;-61
2021/12/31 09:43:02;;;;;;;11.90;7.95;;;11.20;99.90;;;;;;5094363;28;20184;-62
2021/12/31 09:45:28;;;;;;;16.17;7.40;;;11.60;99.90;;;;;;5094791;28;20222;-62
2021/12/31 09:47:58;;;;;;;12.82;7.20;;;11.80;99.90;;;;;;5094839;28;20222;-62
2021/12/31 09:50:24;;;;;;;15.85;7.63;;;11.90;99.90;;;;;;5094102;28;20207;-62
2021/12/31 09:52:51;;;;;;;14.55;7.82;;;12.00;99.90;;;;;;5094243;28;20726;-61
2021/12/31 09:55:53;;;;;;;14.93;8.18;;;12.00;99.90;;;;;;5094825;28;20184;-61
2021/12/31 09:58:21;;;;;;;14.20;7.32;;;12.00;99.90;;;;;;5089139;28;20227;-63
2021/12/31 10:00:53;;;;;;;11.98;6.50;;;12.10;99.90;;;;;;5094172;28;20574;-62
2021/12/31 10:03:30;;;;;;;23.55;8.52;;;12.20;99.90;;;;;;5072752;28;20185;-63
2021/12/31 10:06:04;;;;;;;19.95;9.57;;;12.30;99.90;;;;;;5090881;28;20306;-62
2021/12/31 10:08:38;;;;;;;11.73;6.40;;;12.30;99.90;;;;;;5080872;28;20309;-63
2021/12/31 10:11:22;;;;;;;12.32;5.70;;;12.40;99.90;;;;;;5093113;28;20203;-63
2021/12/31 10:13:59;;;;;;;11.13;6.07;;;12.60;99.90;;;;;;5078527;28;20180;-62
2021/12/31 10:16:36;;;;;;;9.82;5.63;;;12.60;99.90;;;;;;5074118;28;20263;-60
2021/12/31 10:19:11;;;;;;;12.52;5.95;;;12.60;99.90;;;;;;5086328;28;20685;-61
2021/12/31 10:21:43;;;;;;;11.73;6.45;;;12.70;99.90;;;;;;5094333;28;20176;-61
2021/12/31 10:24:22;;;;;;;11.45;6.28;;;12.70;99.90;;;;;;5094045;28;20226;-60
2021/12/31 10:26:48;;;;;;;5.22;4.05;;;12.60;99.90;;;;;;5094227;28;20223;-61
2021/12/31 10:29:15;;;;;;;3.67;2.63;;;12.70;99.90;;;;;;5093918;28;20667;-62
2021/12/31 10:31:46;;;;;;;8.38;4.82;;;12.80;99.90;;;;;;5092536;28;20188;-62
2021/12/31 10:34:28;;;;;;;7.22;4.32;;;12.80;99.90;;;;;;5093874;28;20403;-62
2021/12/31 10:36:57;;;;;;;4.05;3.00;;;13.00;99.90;;;;;;5093640;28;20204;-62
2021/12/31 10:39:28;;;;;;;4.10;2.00;;;13.20;99.90;;;;;;5092095;28;20266;-62
2021/12/31 10:41:59;;;;;;;20.85;11.63;;;13.30;99.90;;;;;;5093476;28;20261;-62
2021/12/31 10:44:40;;;;;;;1.90;1.70;;;13.40;99.90;;;;;;5093176;28;20182;-62
2021/12/31 10:47:33;;;;;;;2.30;1.50;;;13.50;99.90;;;;;;5093245;28;20176;-62
2021/12/31 10:50:02;;;;;;;3.22;1.38;;;13.60;99.90;;;;;;5088630;28;20275;-62
2021/12/31 10:52:41;;;;;;;1.50;1.30;;;13.70;99.90;;;;;;5093694;28;20184;-62
2021/12/31 10:57:42;;;;;;;4.07;2.00;;;13.80;99.90;;;;;;5093514;28;20310;-62
2021/12/31 11:00:09;;;;;;;2.22;1.90;;;14.00;99.90;;;;;;5093909;28;20168;-62
2021/12/31 11:02:36;;;;;;;4.47;2.30;;;14.00;99.90;;;;;;5093194;28;20179;-62
2021/12/31 11:05:10;;;;;;;3.58;2.00;;;14.10;99.90;;;;;;5093364;28;20741;-62
2021/12/31 11:07:37;;;;;;;4.45;2.40;;;14.10;99.90;;;;;;5092421;28;20179;-62
2021/12/31 11:10:04;;;;;;;2.97;1.58;;;14.20;99.90;;;;;;5093300;28;20225;-62
2021/12/31 11:12:30;;;;;;;3.80;1.70;;;14.20;99.90;;;;;;5092996;28;20184;-62
2021/12/31 11:14:56;;;;;;;3.50;1.42;;;14.40;99.90;;;;;;5092924;28;20635;-67
2021/12/31 11:17:22;;;;;;;13.57;7.38;;;14.50;99.90;;;;;;5092955;28;20188;-62
2021/12/31 11:19:50;;;;;;;2.17;1.20;;;14.80;99.90;;;;;;5092302;28;20184;-61
2021/12/31 11:22:25;;;;;;;2.92;1.48;;;15.10;99.90;;;;;;5092564;28;20184;-63
2021/12/31 11:24:51;;;;;;;1.58;1.48;;;15.20;99.90;;;;;;5091243;28;20236;-63
2021/12/31 11:27:25;;;;;;;1.42;1.33;;;15.30;99.90;;;;;;5093288;28;20585;-62
2021/12/31 11:29:52;;;;;;;1.83;1.20;;;15.30;99.90;;;;;;5092838;28;20195;-62
2021/12/31 11:32:18;;;;;;;1.17;1.08;;;15.40;99.90;;;;;;5092847;28;20184;-62
2021/12/31 11:34:44;;;;;;;1.58;1.20;;;15.50;99.90;;;;;;5092768;28;20176;-63
2021/12/31 11:37:44;;;;;;;1.30;1.20;;;15.60;99.90;;;;;;5092171;28;20184;-62
2021/12/31 11:40:26;;;;;;;2.13;1.50;;;15.70;99.90;;;;;;5086723;28;20178;-61
2021/12/31 11:43:19;;;;;;;2.63;1.45;;;15.80;99.90;;;;;;5093124;28;20687;-65
2021/12/31 11:46:10;;;;;;;2.60;1.40;;;15.90;99.90;;;;;;5092604;28;20215;-61
2021/12/31 11:48:47;;;;;;;2.75;1.40;;;15.90;99.90;;;;;;5089128;28;20172;-61
2021/12/31 11:51:20;;;;;;;3.05;1.45;;;15.70;99.90;;;;;;5091744;28;20199;-64
2021/12/31 11:54:00;;;;;;;3.08;1.80;;;15.70;99.90;;;;;;5092370;28;20172;-61
2021/12/31 11:56:39;;;;;;;3.80;1.90;;;15.60;99.90;;;;;;5092117;28;20180;-63
2021/12/31 11:59:11;;;;;;;1.45;1.25;;;15.60;99.90;;;;;;5095306;28;20211;-61
2021/12/31 12:01:36;;;;;;;1.40;1.30;;;15.50;99.90;;;;;;5103219;28;20186;-64
2021/12/31 12:04:32;;;;;;;2.55;1.77;;;15.50;99.90;;;;;;5095699;28;20176;-61
2021/12/31 12:07:05;;;;;;;2.05;1.63;;;15.50;99.90;;;;;;5083758;28;20184;-62
2021/12/31 12:09:37;;;;;;;2.72;1.75;;;15.40;99.90;;;;;;5091298;28;20180;-61
2021/12/31 12:12:03;;;;;;;2.83;1.70;;;15.40;99.90;;;;;;5081052;28;20215;-61
2021/12/31 12:14:36;;;;;;;2.10;1.83;;;15.40;99.90;;;;;;5090956;28;20177;-60
2021/12/31 12:17:02;;;;;;;2.15;1.70;;;15.30;99.90;;;;;;5091271;28;20533;-60
2021/12/31 12:19:46;;;;;;;1.67;1.40;;;15.30;99.90;;;;;;5089992;28;20235;-62
2021/12/31 12:22:50;;;;;;;2.45;1.90;;;15.30;99.90;;;;;;5090655;28;20176;-62
2021/12/31 12:25:26;;;;;;;3.67;1.60;;;15.20;99.90;;;;;;5073618;28;20227;-61
2021/12/31 12:28:13;;;;;;;1.92;1.65;;;15.10;99.90;;;;;;5091195;28;20244;-61
2021/12/31 12:30:47;;;;;;;2.70;1.90;;;15.00;99.90;;;;;;5091367;28;20172;-61
2021/12/31 12:33:19;;;;;;;2.20;1.35;;;15.00;99.90;;;;;;5091979;28;20192;-62
2021/12/31 12:35:49;;;;;;;3.22;2.10;;;14.90;99.90;;;;;;5091989;28;20192;-62
2021/12/31 12:38:19;;;;;;;1.83;1.67;;;14.90;99.90;;;;;;5091767;28;20180;-61
2021/12/31 12:40:47;;;;;;;2.65;1.92;;;14.90;99.90;;;;;;5091845;28;20172;-61
2021/12/31 12:43:14;;;;;;;2.15;1.50;;;14.80;99.90;;;;;;5091747;28;20179;-61
2021/12/31 12:45:45;;;;;;;3.40;1.73;;;14.70;99.90;;;;;;5091604;28;20693;-62
2021/12/31 12:48:11;;;;;;;1.63;1.48;;;14.50;99.90;;;;;;5072017;28;20173;-61
2021/12/31 12:50:37;;;;;;;2.15;1.50;;;14.40;99.90;;;;;;5085968;28;20176;-62
2021/12/31 12:53:03;;;;;;;1.92;1.60;;;14.20;99.90;;;;;;5091796;28;20176;-61
2021/12/31 12:55:29;;;;;;;2.67;1.70;;;14.10;99.90;;;;;;5091667;28;20188;-62
2021/12/31 12:58:00;;;;;;;2.20;1.60;;;14.10;99.90;;;;;;5089678;28;20227;-62
2021/12/31 13:00:40;;;;;;;2.33;1.55;;;14.00;99.90;;;;;;5091268;28;20203;-61
2021/12/31 13:03:10;;;;;;;2.97;1.58;;;13.80;99.90;;;;;;5090788;28;20718;-61